KHSP/HSP METAR and TAF weather

Enter ICAO airport designator
Station Type Date Time Source
KHSP METAR 2020/01/18 15:55 UTC NOAA

KHSP 181555Z AUTO 17003G16KT 10SM SCT004 OVC024 M05/M05 A3019 RMK AO2 T10521052


Station Type Date Time Source
KHSP Decoded METAR 2020/01/18 15:55 UTC NOAA

Hot Springs / Ingalls, VA, United States (KHSP) 37-57N 079-50W
Jan 18, 2020 - 10:55 AM EST / 2020.01.18 1555 UTC
Wind: from the S (170 degrees) at 3 MPH (3 KT) gusting to 18 MPH (16 KT):0
Visibility: 10 mile(s):0
Sky conditions: overcast
Temperature: 22.6 F (-5.2 C)
Dew Point: 22.6 F (-5.2 C)
Relative Humidity: 100%
Pressure (altimeter): 30.19 in. Hg (1022 hPa)
ob: KHSP 181555Z AUTO 17003G16KT 10SM SCT004 OVC024 M05/M05 A3019 RMK AO2 T10521052
cycle: 16

Station Type Date Time Source
KHSP TAF UTC NOAA

Error!

Example: see airport list